Time;durP1;ratioP1;P1;durP2;ratioP2;P2;SDS_P1;SDS_P2;PMS_P1;PMS_P2;Temp;Humidity;BMP_temperature;BMP_pressure;BME280_temperature;BME280_humidity;BME280_pressure;Samples;Min_cycle;Max_cycle;Signal;HPM_P1;HPM_P2
2021/03/10 00:00:35;;;;;;;33.85;21.73;;;0.80;99.30;;;;;;5091954;28;20044;-80
2021/03/10 00:03:02;;;;;;;33.95;22.60;;;0.80;99.30;;;;;;5092527;28;20054;-80
2021/03/10 00:05:29;;;;;;;29.77;21.73;;;0.70;99.30;;;;;;5083466;28;20044;-80
2021/03/10 00:07:55;;;;;;;29.00;20.50;;;0.70;99.20;;;;;;5084629;28;20110;-80
2021/03/10 00:10:23;;;;;;;24.42;21.05;;;0.70;99.40;;;;;;5085918;28;20059;-80
2021/03/10 00:12:52;;;;;;;35.45;20.85;;;0.70;99.40;;;;;;5082704;28;20040;-80
2021/03/10 00:15:19;;;;;;;31.15;21.10;;;0.70;99.40;;;;;;5084106;28;20071;-80
2021/03/10 00:17:46;;;;;;;29.85;21.33;;;0.60;99.50;;;;;;5082852;28;20143;-80
2021/03/10 00:20:14;;;;;;;38.42;26.35;;;0.60;99.60;;;;;;5092049;28;20056;-80
2021/03/10 00:22:44;;;;;;;31.55;22.30;;;0.70;99.70;;;;;;5083842;28;20162;-80
2021/03/10 00:25:12;;;;;;;29.67;22.67;;;0.60;99.70;;;;;;5091318;27;20521;-80
2021/03/10 00:27:39;;;;;;;39.83;22.35;;;0.70;99.70;;;;;;5083446;28;20094;-80
2021/03/10 00:30:09;;;;;;;39.53;21.60;;;0.70;99.60;;;;;;5091566;27;20036;-80
2021/03/10 00:32:37;;;;;;;34.47;21.63;;;0.70;99.60;;;;;;5086023;27;20581;-83
2021/03/10 00:35:24;;;;;;;33.63;23.25;;;0.60;99.60;;;;;;5072969;28;20048;-83
2021/03/10 00:37:56;;;;;;;29.40;22.97;;;0.80;99.50;;;;;;5071728;28;20040;-83
2021/03/10 00:40:23;;;;;;;29.67;22.42;;;0.80;99.50;;;;;;5065133;28;20377;-83
2021/03/10 00:42:50;;;;;;;38.50;23.67;;;0.90;99.30;;;;;;5092821;28;20437;-84
2021/03/10 00:45:17;;;;;;;37.45;23.63;;;0.80;99.10;;;;;;5074530;28;20054;-83
2021/03/10 00:47:44;;;;;;;37.85;21.80;;;0.90;98.90;;;;;;5082963;28;20052;-83
2021/03/10 00:50:14;;;;;;;31.20;20.98;;;0.90;98.80;;;;;;5085564;27;20044;-83
2021/03/10 00:52:41;;;;;;;34.85;23.30;;;0.90;98.70;;;;;;5086652;28;20067;-83
2021/03/10 00:55:08;;;;;;;27.42;20.48;;;0.80;98.70;;;;;;5093134;28;20048;-83
2021/03/10 00:57:35;;;;;;;32.75;22.92;;;0.80;98.70;;;;;;5092121;28;20044;-83
2021/03/10 01:00:04;;;;;;;36.28;24.38;;;0.90;98.70;;;;;;5074975;28;20091;-83
2021/03/10 01:02:30;;;;;;;31.77;23.60;;;0.80;98.90;;;;;;5053272;28;20045;-83
2021/03/10 01:04:58;;;;;;;27.25;22.60;;;0.90;98.80;;;;;;5071763;28;20044;-83
2021/03/10 01:07:25;;;;;;;32.42;19.98;;;0.80;98.80;;;;;;5070913;28;20036;-83
2021/03/10 01:09:52;;;;;;;43.17;25.38;;;0.80;98.80;;;;;;5070411;28;20036;-83
2021/03/10 01:12:19;;;;;;;32.40;24.10;;;0.80;98.90;;;;;;5075258;28;20040;-83
2021/03/10 01:14:45;;;;;;;26.80;21.45;;;0.80;98.90;;;;;;5037722;28;20453;-83
2021/03/10 01:17:13;;;;;;;35.38;21.88;;;0.80;99.10;;;;;;5084991;28;20048;-83
2021/03/10 01:19:40;;;;;;;32.55;23.05;;;0.80;99.10;;;;;;5074205;28;20051;-83
2021/03/10 01:22:07;;;;;;;31.90;23.63;;;0.80;99.00;;;;;;5084885;28;20043;-84
2021/03/10 01:24:33;;;;;;;37.53;25.10;;;0.80;99.00;;;;;;5071579;28;20399;-83
2021/03/10 01:27:00;;;;;;;35.35;20.90;;;0.70;99.20;;;;;;5085579;28;20051;-83
2021/03/10 01:29:27;;;;;;;34.63;20.00;;;0.70;99.50;;;;;;5073945;28;20045;-83
2021/03/10 01:31:54;;;;;;;29.10;21.33;;;0.70;99.60;;;;;;5091598;28;20058;-82
2021/03/10 01:34:21;;;;;;;34.97;23.75;;;0.70;99.60;;;;;;5092099;28;20064;-83
2021/03/10 01:36:48;;;;;;;38.03;22.33;;;0.80;99.60;;;;;;5081297;28;20045;-83
2021/03/10 01:39:15;;;;;;;38.60;25.77;;;0.70;99.60;;;;;;5068232;28;20047;-83
2021/03/10 01:41:42;;;;;;;37.53;24.42;;;0.70;99.50;;;;;;5090868;27;20047;-83
2021/03/10 01:44:15;;;;;;;31.80;23.33;;;0.70;99.60;;;;;;5061223;28;20528;-83
2021/03/10 01:46:42;;;;;;;38.13;23.00;;;0.60;99.60;;;;;;5091711;28;20138;-83
2021/03/10 01:49:10;;;;;;;32.90;21.85;;;0.70;99.60;;;;;;5082269;28;20044;-83
2021/03/10 01:51:37;;;;;;;34.17;23.48;;;0.70;99.60;;;;;;5083623;28;20048;-83
2021/03/10 01:54:05;;;;;;;35.50;23.35;;;0.70;99.70;;;;;;5095083;28;20044;-83
2021/03/10 01:56:32;;;;;;;36.00;24.48;;;0.70;99.70;;;;;;5094019;28;20048;-83
2021/03/10 01:58:58;;;;;;;33.35;23.92;;;0.70;99.70;;;;;;5095839;28;20541;-83
2021/03/10 02:01:25;;;;;;;34.50;22.85;;;0.80;99.50;;;;;;5085405;28;20082;-83
2021/03/10 02:03:57;;;;;;;33.42;27.48;;;0.70;99.50;;;;;;5094790;28;20040;-83
2021/03/10 02:06:33;;;;;;;32.53;23.33;;;0.60;99.60;;;;;;5083562;28;20426;-84
2021/03/10 02:09:10;;;;;;;37.40;25.40;;;0.60;99.70;;;;;;5072636;28;20051;-83
2021/03/10 02:11:42;;;;;;;37.53;25.27;;;0.60;99.80;;;;;;5074900;28;20601;-83
2021/03/10 02:14:36;;;;;;;43.75;24.55;;;0.80;99.80;;;;;;5083970;28;20083;-79
2021/03/10 02:17:07;;;;;;;36.63;26.10;;;0.70;99.70;;;;;;5087581;28;20041;-79
2021/03/10 02:20:22;;;;;;;42.95;27.80;;;0.60;99.60;;;;;;5084251;28;20041;-79
2021/03/10 02:23:27;;;;;;;37.80;24.10;;;0.70;99.60;;;;;;5077636;28;20040;-78
2021/03/10 02:26:30;;;;;;;43.58;27.63;;;0.70;99.50;;;;;;5092885;28;20560;-78
2021/03/10 02:29:19;;;;;;;37.95;23.80;;;0.70;99.50;;;;;;5090769;28;20101;-79
2021/03/10 02:31:49;;;;;;;43.83;25.45;;;0.70;99.50;;;;;;5088457;28;20083;-79
2021/03/10 02:34:20;;;;;;;44.10;27.27;;;0.80;99.50;;;;;;5066503;28;20066;-79
2021/03/10 02:37:01;;;;;;;44.17;29.20;;;0.80;99.50;;;;;;5078342;28;20052;-78
2021/03/10 02:39:29;;;;;;;45.75;30.50;;;0.70;99.60;;;;;;5075222;28;20091;-78
2021/03/10 02:41:56;;;;;;;40.97;32.67;;;0.70;99.60;;;;;;5087823;28;20047;-78
2021/03/10 02:44:24;;;;;;;36.97;28.50;;;0.70;99.50;;;;;;5082114;28;20048;-78
2021/03/10 02:46:51;;;;;;;40.83;29.63;;;0.70;99.70;;;;;;5082188;28;20086;-79
2021/03/10 02:49:18;;;;;;;50.20;30.08;;;0.70;99.70;;;;;;5081335;28;20498;-78
2021/03/10 02:51:46;;;;;;;43.63;28.25;;;0.70;99.60;;;;;;5093138;28;20039;-78
2021/03/10 02:54:15;;;;;;;44.45;27.90;;;0.70;99.60;;;;;;5085453;28;20040;-78
2021/03/10 02:56:43;;;;;;;42.58;28.50;;;0.60;99.60;;;;;;5054545;28;20045;-78
2021/03/10 02:59:10;;;;;;;46.65;30.50;;;0.70;99.60;;;;;;5071731;28;20047;-79
2021/03/10 03:01:38;;;;;;;51.38;28.45;;;0.70;99.60;;;;;;5092992;28;20040;-79
2021/03/10 03:04:06;;;;;;;36.00;23.60;;;0.70;99.60;;;;;;5085455;27;20398;-79
2021/03/10 03:06:33;;;;;;;44.72;28.45;;;0.70;99.60;;;;;;5084177;28;20051;-78
2021/03/10 03:09:00;;;;;;;46.10;29.48;;;0.70;99.50;;;;;;5085218;28;20047;-79
2021/03/10 03:11:28;;;;;;;38.95;28.67;;;0.70;99.50;;;;;;5081185;28;20495;-79
2021/03/10 03:13:56;;;;;;;47.58;33.47;;;0.70;99.40;;;;;;5088829;27;20122;-79
2021/03/10 03:16:26;;;;;;;41.75;28.17;;;0.70;99.30;;;;;;5081794;28;20081;-79
2021/03/10 03:18:53;;;;;;;46.53;31.52;;;0.70;99.40;;;;;;5085540;28;20048;-79
2021/03/10 03:21:21;;;;;;;40.92;29.60;;;0.70;99.50;;;;;;5085114;28;20052;-79
2021/03/10 03:30:31;;;;;;;53.78;32.05;;;0.80;99.50;;;;;;5080369;28;20360;-79
2021/03/10 03:33:00;;;;;;;50.20;30.60;;;0.80;99.20;;;;;;5072769;28;20040;-78
2021/03/10 03:35:27;;;;;;;44.45;31.77;;;0.70;99.30;;;;;;5073448;28;20506;-78
2021/03/10 03:37:55;;;;;;;42.50;30.58;;;0.80;99.20;;;;;;5083827;28;20044;-78
2021/03/10 03:40:23;;;;;;;46.58;29.52;;;0.90;99.10;;;;;;5088580;27;20055;-78
2021/03/10 03:42:51;;;;;;;46.65;31.13;;;0.80;99.20;;;;;;5082082;28;20048;-78
2021/03/10 03:45:20;;;;;;;43.75;31.55;;;0.80;99.20;;;;;;5068568;28;20048;-82
2021/03/10 03:47:52;;;;;;;44.28;30.77;;;0.80;99.10;;;;;;5057196;28;20062;-78
2021/03/10 03:50:20;;;;;;;50.35;31.17;;;0.80;99.20;;;;;;5085238;28;20048;-78
2021/03/10 03:52:49;;;;;;;41.60;26.85;;;0.80;99.20;;;;;;5089827;28;20036;-79
2021/03/10 03:55:16;;;;;;;44.25;31.77;;;0.70;99.30;;;;;;5093017;28;20039;-78
2021/03/10 03:57:43;;;;;;;49.72;34.65;;;0.70;99.20;;;;;;5083876;28;20040;-78
2021/03/10 04:00:17;;;;;;;47.90;36.03;;;0.80;99.10;;;;;;5084697;27;20048;-78
2021/03/10 04:02:47;;;;;;;45.70;32.33;;;0.80;99.10;;;;;;5082748;28;20048;-79
2021/03/10 04:05:16;;;;;;;46.83;30.55;;;0.70;99.10;;;;;;5091750;28;20040;-79
2021/03/10 04:08:03;;;;;;;49.13;32.47;;;0.90;99.10;;;;;;5089480;28;20047;-78
2021/03/10 04:10:36;;;;;;;46.85;31.20;;;0.80;99.10;;;;;;5085690;28;20056;-78
2021/03/10 04:13:04;;;;;;;47.40;30.45;;;0.90;99.10;;;;;;5088827;27;20047;-78
2021/03/10 04:15:33;;;;;;;52.75;34.42;;;0.80;99.00;;;;;;5080907;28;20068;-78
2021/03/10 04:18:01;;;;;;;51.65;32.88;;;0.90;99.10;;;;;;5082414;27;20059;-79
2021/03/10 04:20:28;;;;;;;48.92;32.53;;;0.90;99.10;;;;;;5083592;28;20064;-79
2021/03/10 04:22:55;;;;;;;48.10;34.10;;;0.80;99.00;;;;;;5076060;28;20091;-79
2021/03/10 04:25:22;;;;;;;46.75;32.72;;;0.80;98.90;;;;;;5091303;27;20048;-78
2021/03/10 04:27:50;;;;;;;53.17;35.38;;;0.80;99.10;;;;;;5083092;28;20512;-78
2021/03/10 04:30:18;;;;;;;51.25;34.60;;;0.80;99.10;;;;;;5083041;27;20047;-78
2021/03/10 04:32:45;;;;;;;49.58;32.08;;;0.80;99.10;;;;;;5082938;27;20051;-78
2021/03/10 04:35:22;;;;;;;53.45;34.90;;;0.90;99.20;;;;;;5085572;28;20048;-79
2021/03/10 04:37:49;;;;;;;52.22;38.28;;;0.90;99.10;;;;;;5087080;28;20032;-78
2021/03/10 04:40:17;;;;;;;51.65;33.63;;;0.90;99.10;;;;;;5089478;28;20044;-78
2021/03/10 04:42:44;;;;;;;56.35;35.88;;;0.80;99.10;;;;;;5091867;28;20044;-78
2021/03/10 04:45:14;;;;;;;52.13;34.38;;;0.80;99.00;;;;;;5090521;27;20678;-78
2021/03/10 04:47:43;;;;;;;52.33;33.28;;;0.90;99.00;;;;;;5083545;28;20169;-78
2021/03/10 04:50:11;;;;;;;58.20;36.83;;;0.80;99.00;;;;;;5088892;28;20036;-78
2021/03/10 04:52:39;;;;;;;55.83;36.45;;;0.90;99.10;;;;;;5088367;28;20086;-78
2021/03/10 04:55:07;;;;;;;55.22;37.97;;;0.90;99.00;;;;;;5078779;28;20053;-78
2021/03/10 04:57:36;;;;;;;45.97;33.53;;;0.90;99.00;;;;;;5076869;28;20032;-79
2021/03/10 05:00:06;;;;;;;48.20;34.08;;;0.80;99.10;;;;;;5091260;28;20048;-79
2021/03/10 05:02:33;;;;;;;49.70;34.13;;;0.80;99.20;;;;;;5076601;28;20104;-78
2021/03/10 05:05:01;;;;;;;60.53;42.88;;;0.90;99.20;;;;;;5090237;28;20459;-79
2021/03/10 05:07:29;;;;;;;55.60;36.50;;;0.90;99.10;;;;;;5082701;28;20038;-79
2021/03/10 05:09:57;;;;;;;57.78;34.00;;;1.00;99.10;;;;;;5090074;28;20048;-78
2021/03/10 05:12:29;;;;;;;55.72;36.65;;;0.80;99.10;;;;;;5090429;27;20048;-80
2021/03/10 05:14:59;;;;;;;53.60;35.28;;;0.80;99.20;;;;;;5090989;28;20052;-79
2021/03/10 05:17:28;;;;;;;52.17;35.28;;;0.90;99.20;;;;;;5091580;28;20052;-79
2021/03/10 05:19:58;;;;;;;53.00;36.63;;;0.90;99.40;;;;;;5076976;28;20479;-79
2021/03/10 05:22:26;;;;;;;62.38;40.67;;;0.90;99.20;;;;;;5094064;28;21221;-79
2021/03/10 05:24:54;;;;;;;60.08;39.35;;;1.00;99.10;;;;;;5090818;28;20047;-79
2021/03/10 05:27:21;;;;;;;53.90;36.75;;;0.90;99.10;;;;;;5096132;28;20044;-79
2021/03/10 05:29:48;;;;;;;60.28;38.00;;;0.80;99.20;;;;;;5093847;27;20555;-79
2021/03/10 05:32:16;;;;;;;59.05;45.38;;;0.90;99.30;;;;;;5093264;27;20073;-79
2021/03/10 05:34:43;;;;;;;61.85;41.47;;;0.90;99.30;;;;;;5080410;28;20142;-79
2021/03/10 05:37:10;;;;;;;57.70;37.03;;;0.80;99.40;;;;;;5086827;28;20047;-79
2021/03/10 05:39:37;;;;;;;61.40;38.03;;;0.90;99.50;;;;;;5091848;28;20061;-79
2021/03/10 05:42:05;;;;;;;56.65;36.88;;;0.80;99.60;;;;;;5081895;28;20046;-79
2021/03/10 05:44:34;;;;;;;60.03;39.50;;;0.80;99.60;;;;;;5094322;28;20051;-79
2021/03/10 05:47:01;;;;;;;59.25;39.10;;;0.80;99.60;;;;;;5094349;28;20056;-79
2021/03/10 05:49:28;;;;;;;55.88;37.38;;;0.80;99.70;;;;;;5086124;28;20380;-79
2021/03/10 05:51:57;;;;;;;65.35;39.47;;;0.90;99.70;;;;;;5090191;27;20043;-79
2021/03/10 05:54:28;;;;;;;59.17;38.88;;;0.90;99.60;;;;;;5094214;28;20130;-79
2021/03/10 05:56:56;;;;;;;62.08;37.72;;;0.90;99.60;;;;;;5087848;27;20066;-79
2021/03/10 05:59:26;;;;;;;64.78;41.67;;;0.90;99.60;;;;;;5078708;28;20045;-79
2021/03/10 06:01:54;;;;;;;61.38;40.40;;;0.90;99.50;;;;;;5080354;27;20043;-79
2021/03/10 06:04:24;;;;;;;73.28;47.00;;;1.00;99.40;;;;;;5090291;28;20040;-79
2021/03/10 06:06:50;;;;;;;65.03;41.67;;;1.00;99.30;;;;;;5079238;28;20051;-79
2021/03/10 06:09:34;;;;;;;61.92;37.97;;;1.00;99.20;;;;;;5094470;28;20135;-79
2021/03/10 06:12:03;;;;;;;63.63;41.20;;;1.00;99.20;;;;;;5085877;27;20474;-79
2021/03/10 06:14:32;;;;;;;69.25;44.03;;;1.00;99.10;;;;;;5093254;28;20131;-79
2021/03/10 06:17:11;;;;;;;61.22;39.28;;;1.00;99.10;;;;;;5079323;28;20059;-79
2021/03/10 06:19:48;;;;;;;66.78;39.63;;;1.00;99.20;;;;;;5086886;28;20048;-78
2021/03/10 06:22:17;;;;;;;61.70;36.40;;;1.00;99.30;;;;;;5079201;28;20422;-79
2021/03/10 06:24:48;;;;;;;66.05;44.20;;;0.90;99.40;;;;;;5074423;28;20045;-79
2021/03/10 06:27:26;;;;;;;68.15;44.25;;;1.00;99.30;;;;;;5085701;28;20131;-79
2021/03/10 06:30:01;;;;;;;62.90;39.58;;;1.00;99.20;;;;;;5093939;28;20510;-79
2021/03/10 06:32:28;;;;;;;55.15;35.20;;;1.00;99.30;;;;;;5094321;28;20040;-79
2021/03/10 06:34:56;;;;;;;60.58;41.78;;;1.10;99.10;;;;;;5095115;28;20052;-79
2021/03/10 06:37:30;;;;;;;67.47;46.00;;;1.10;99.10;;;;;;5093031;28;20128;-79
2021/03/10 06:40:10;;;;;;;60.60;39.35;;;1.20;99.10;;;;;;5093193;28;20402;-78
2021/03/10 06:42:38;;;;;;;62.83;39.72;;;1.10;99.20;;;;;;5085525;28;20055;-79
2021/03/10 06:45:07;;;;;;;69.28;43.70;;;1.10;99.30;;;;;;5076974;28;20110;-80
2021/03/10 06:47:39;;;;;;;55.67;40.35;;;1.10;99.30;;;;;;5076158;28;20051;-80
2021/03/10 06:50:10;;;;;;;65.18;42.67;;;1.10;99.20;;;;;;5091012;28;20048;-81
2021/03/10 06:52:40;;;;;;;61.53;39.83;;;1.10;99.30;;;;;;5083411;28;20478;-78
2021/03/10 06:55:08;;;;;;;70.72;38.45;;;1.10;99.40;;;;;;5081233;28;20539;-80
2021/03/10 06:57:44;;;;;;;64.55;42.10;;;1.10;99.50;;;;;;5092067;28;20078;-78
2021/03/10 07:00:24;;;;;;;68.60;47.38;;;1.10;99.50;;;;;;5089191;27;20046;-80
2021/03/10 07:02:52;;;;;;;59.13;37.38;;;1.10;99.60;;;;;;5076168;28;20048;-82
2021/03/10 07:05:21;;;;;;;58.42;36.85;;;1.10;99.60;;;;;;5074468;28;20048;-80
2021/03/10 07:07:50;;;;;;;58.58;38.05;;;1.20;99.80;;;;;;5068531;28;20052;-80
2021/03/10 07:10:22;;;;;;;67.55;41.25;;;1.10;99.50;;;;;;5065749;28;20746;-79
2021/03/10 07:12:49;;;;;;;59.60;38.03;;;1.10;99.70;;;;;;5071777;28;20135;-80
2021/03/10 07:15:18;;;;;;;67.55;40.92;;;1.10;99.50;;;;;;5092130;28;20067;-80
2021/03/10 07:17:48;;;;;;;59.40;37.72;;;1.10;99.70;;;;;;5089678;28;20655;-80
2021/03/10 07:20:18;;;;;;;;;;;1.10;99.50;;;;;;5088989;28;20074;-80
2021/03/10 07:23:04;;;;;;;60.15;36.92;;;1.10;99.50;;;;;;5087242;28;20015;-80
2021/03/10 07:25:34;;;;;;;64.80;40.95;;;1.20;99.60;;;;;;5090268;28;20040;-79
2021/03/10 07:28:05;;;;;;;57.85;38.40;;;1.20;99.50;;;;;;5085406;28;20411;-80
2021/03/10 07:30:41;;;;;;;62.65;40.90;;;1.30;99.20;;;;;;5090713;28;20076;-80
2021/03/10 07:33:12;;;;;;;62.05;41.67;;;1.30;99.20;;;;;;5083991;28;20068;-80
2021/03/10 07:35:53;;;;;;;57.35;40.78;;;1.30;99.20;;;;;;5092574;28;20044;-80
2021/03/10 07:38:34;;;;;;;65.25;37.25;;;1.30;99.00;;;;;;5092206;28;20313;-80
2021/03/10 07:41:13;;;;;;;60.53;38.53;;;1.40;99.10;;;;;;5086385;27;20100;-80
2021/03/10 07:43:46;;;;;;;63.35;38.28;;;1.40;98.80;;;;;;5088258;28;20055;-79
2021/03/10 07:46:34;;;;;;;55.15;37.53;;;1.40;99.10;;;;;;5085104;28;20086;-80
2021/03/10 07:49:15;;;;;;;53.15;37.40;;;1.50;98.80;;;;;;5089098;27;20036;-80
2021/03/10 07:51:42;;;;;;;56.53;36.80;;;1.50;99.00;;;;;;5090141;28;20055;-79
2021/03/10 07:54:25;;;;;;;52.92;35.97;;;1.50;98.90;;;;;;5091438;27;20060;-79
2021/03/10 07:57:13;;;;;;;67.90;42.15;;;1.60;98.80;;;;;;5089131;28;20048;-80
2021/03/10 08:00:02;;;;;;;64.78;37.78;;;1.60;98.90;;;;;;5085908;28;20087;-79
2021/03/10 08:02:48;;;;;;;56.80;39.03;;;1.60;99.10;;;;;;5071145;28;20304;-79
2021/03/10 08:05:21;;;;;;;65.40;43.00;;;1.70;98.90;;;;;;5082422;27;20131;-79
2021/03/10 08:07:48;;;;;;;;;;;1.70;99.00;;;;;;5091996;28;20518;-80
2021/03/10 08:10:27;;;;;;;59.55;39.97;;;1.70;98.80;;;;;;5091103;28;19920;-80
2021/03/10 08:12:54;;;;;;;58.50;36.03;;;1.80;98.70;;;;;;5084560;27;20073;-79
2021/03/10 08:15:25;;;;;;;62.08;37.92;;;1.90;98.90;;;;;;5086999;28;20151;-79
2021/03/10 08:18:02;;;;;;;57.60;35.97;;;1.90;98.50;;;;;;5078363;28;20045;-79
2021/03/10 08:20:35;;;;;;;60.42;42.05;;;2.00;98.60;;;;;;5099659;28;20129;-80
2021/03/10 08:23:06;;;;;;;56.53;37.75;;;1.80;98.60;;;;;;5091181;28;20487;-79
2021/03/10 08:25:34;;;;;;;56.05;40.17;;;1.80;98.40;;;;;;5090422;28;20061;-79
2021/03/10 08:28:15;;;;;;;64.00;41.92;;;1.80;98.80;;;;;;5090338;28;20101;-79
2021/03/10 08:30:43;;;;;;;50.85;33.50;;;1.80;98.60;;;;;;5070448;28;20051;-79
2021/03/10 08:33:11;;;;;;;58.90;39.10;;;1.80;99.00;;;;;;5080009;28;20097;-79
2021/03/10 08:35:48;;;;;;;55.58;35.95;;;1.90;98.70;;;;;;5087469;28;20126;-80
2021/03/10 08:38:15;;;;;;;63.53;42.05;;;2.00;98.80;;;;;;5089416;27;20097;-79
2021/03/10 08:40:42;;;;;;;57.58;39.38;;;2.00;98.50;;;;;;5087783;28;20040;-79
2021/03/10 08:43:16;;;;;;;61.63;39.47;;;2.10;98.20;;;;;;5089695;28;20119;-79
2021/03/10 08:45:44;;;;;;;57.20;36.58;;;2.10;98.30;;;;;;5077573;28;20090;-79
2021/03/10 08:48:13;;;;;;;56.92;37.40;;;2.10;98.90;;;;;;5079488;28;20493;-79
2021/03/10 08:50:45;;;;;;;58.38;37.60;;;2.00;98.70;;;;;;5086645;28;20067;-79
2021/03/10 08:53:14;;;;;;;55.45;37.75;;;2.10;99.00;;;;;;5087140;28;20494;-77
2021/03/10 08:55:46;;;;;;;54.75;36.13;;;2.00;98.40;;;;;;5077331;28;20041;-80
2021/03/10 08:58:15;;;;;;;54.75;33.90;;;2.00;99.00;;;;;;5090156;28;20043;-79
2021/03/10 09:00:45;;;;;;;51.43;33.17;;;2.00;98.80;;;;;;5084428;28;20036;-79
2021/03/10 09:03:15;;;;;;;54.17;33.92;;;2.00;98.80;;;;;;5094776;28;20294;-79
2021/03/10 09:05:45;;;;;;;51.65;34.15;;;1.90;98.80;;;;;;5095826;28;20041;-82
2021/03/10 09:08:15;;;;;;;57.42;34.45;;;1.90;98.60;;;;;;5093564;28;20045;-82
2021/03/10 09:10:53;;;;;;;58.50;37.53;;;1.80;98.80;;;;;;5094049;28;20044;-80
2021/03/10 09:13:38;;;;;;;50.13;33.03;;;1.90;98.80;;;;;;5093718;28;20048;-81
2021/03/10 09:16:12;;;;;;;50.08;33.40;;;1.90;98.70;;;;;;5091813;28;20039;-80
2021/03/10 09:19:00;;;;;;;55.60;33.38;;;1.80;98.80;;;;;;5088938;28;20382;-80
2021/03/10 09:21:41;;;;;;;55.88;36.28;;;1.80;98.90;;;;;;5085452;28;20048;-79
2021/03/10 09:24:14;;;;;;;47.90;32.03;;;1.80;98.80;;;;;;5086478;28;20055;-80
2021/03/10 09:26:47;;;;;;;53.90;33.13;;;1.80;98.70;;;;;;5094287;28;20048;-82
2021/03/10 09:29:18;;;;;;;49.20;32.38;;;1.60;98.80;;;;;;5068635;28;20060;-82
2021/03/10 09:31:57;;;;;;;49.10;33.20;;;1.70;99.10;;;;;;5078247;28;20048;-82
2021/03/10 09:34:33;;;;;;;56.22;34.50;;;1.70;99.20;;;;;;5084285;28;20564;-82
2021/03/10 09:37:12;;;;;;;56.63;36.15;;;1.70;99.50;;;;;;5092480;28;20036;-82
2021/03/10 09:39:49;;;;;;;52.80;35.20;;;1.90;99.00;;;;;;5057518;28;20059;-82
2021/03/10 09:42:29;;;;;;;56.88;35.47;;;1.90;99.00;;;;;;5092321;28;20075;-82
2021/03/10 09:45:10;;;;;;;50.25;32.40;;;1.90;99.00;;;;;;5092679;28;20044;-82
2021/03/10 09:47:57;;;;;;;54.53;34.38;;;2.00;99.10;;;;;;5090619;28;20394;-82
2021/03/10 09:50:43;;;;;;;54.03;33.63;;;2.10;98.60;;;;;;5077458;28;20036;-82
2021/03/10 09:53:15;;;;;;;54.00;35.22;;;2.10;98.70;;;;;;5093369;28;20044;-82
2021/03/10 09:55:44;;;;;;;54.92;33.60;;;2.20;98.90;;;;;;5094240;28;20044;-82
2021/03/10 09:58:12;;;;;;;51.72;34.65;;;2.30;98.20;;;;;;5076399;28;20039;-82
2021/03/10 10:00:46;;;;;;;58.72;37.60;;;2.20;98.40;;;;;;5093832;28;20046;-82
2021/03/10 10:03:25;;;;;;;57.63;36.92;;;2.20;98.60;;;;;;5085356;28;20119;-84
2021/03/10 10:06:06;;;;;;;63.60;36.13;;;2.30;98.70;;;;;;5085239;27;20043;-84
2021/03/10 10:08:35;;;;;;;54.70;35.97;;;2.50;98.20;;;;;;5073746;28;20044;-83
2021/03/10 10:11:03;;;;;;;53.20;33.65;;;2.50;98.40;;;;;;5087132;28;20036;-83
2021/03/10 10:13:43;;;;;;;52.33;32.90;;;2.50;98.90;;;;;;5083015;28;20040;-83
2021/03/10 10:16:14;;;;;;;57.38;33.92;;;2.50;98.10;;;;;;5092268;28;20130;-83
2021/03/10 10:18:43;;;;;;;56.38;36.80;;;2.60;98.60;;;;;;5093747;28;20063;-83
2021/03/10 10:21:12;;;;;;;50.63;34.65;;;2.90;98.40;;;;;;5075824;28;20040;-83
2021/03/10 10:23:40;;;;;;;48.90;32.88;;;2.90;97.30;;;;;;5091016;28;20441;-84
2021/03/10 10:26:12;;;;;;;45.72;30.80;;;2.90;96.80;;;;;;5089392;28;20043;-83
2021/03/10 10:28:43;;;;;;;49.47;31.08;;;2.90;96.40;;;;;;5083856;28;20714;-83
2021/03/10 10:31:30;;;;;;;61.67;37.63;;;3.00;96.90;;;;;;5088204;28;20503;-83
2021/03/10 10:33:57;;;;;;;54.08;35.13;;;3.20;97.70;;;;;;5093990;28;20119;-83
2021/03/10 10:36:28;;;;;;;56.83;35.55;;;3.10;97.20;;;;;;5088515;28;20075;-83
2021/03/10 10:39:10;;;;;;;56.38;36.45;;;3.10;96.50;;;;;;5070100;28;20053;-83
2021/03/10 10:41:37;;;;;;;45.63;31.58;;;2.90;96.80;;;;;;5091423;28;20036;-83
2021/03/10 10:44:05;;;;;;;61.20;34.55;;;2.80;96.90;;;;;;5090449;27;20052;-83
2021/03/10 10:46:42;;;;;;;54.60;32.60;;;2.70;97.50;;;;;;5070411;28;20040;-81
2021/03/10 10:49:09;;;;;;;49.55;32.70;;;2.70;97.00;;;;;;5085166;28;20040;-82
2021/03/10 10:51:36;;;;;;;47.33;34.42;;;2.90;97.80;;;;;;5093034;28;20048;-82
2021/03/10 10:54:15;;;;;;;55.10;35.97;;;3.00;97.20;;;;;;5089537;28;20040;-83
2021/03/10 10:56:46;;;;;;;57.45;37.08;;;3.20;97.30;;;;;;5090724;28;20551;-84
2021/03/10 10:59:29;;;;;;;58.08;36.72;;;3.30;97.30;;;;;;5087694;28;20131;-83
2021/03/10 11:02:01;;;;;;;67.35;47.55;;;3.50;98.10;;;;;;5092320;28;20077;-84
2021/03/10 11:04:28;;;;;;;50.72;34.65;;;3.70;97.00;;;;;;5075299;28;20058;-83
2021/03/10 11:07:00;;;;;;;49.88;36.25;;;3.70;96.60;;;;;;5092923;28;20068;-83
2021/03/10 11:09:27;;;;;;;45.55;32.55;;;3.90;97.10;;;;;;5090408;28;20465;-83
2021/03/10 11:11:55;;;;;;;56.65;34.88;;;4.10;95.90;;;;;;5094765;28;20048;-82
2021/03/10 11:14:25;;;;;;;42.80;28.95;;;3.70;96.60;;;;;;5092658;28;20066;-83
2021/03/10 11:17:00;;;;;;;51.85;30.38;;;3.60;96.20;;;;;;5066541;28;20033;-83
2021/03/10 11:19:39;;;;;;;55.83;32.30;;;3.50;96.10;;;;;;5083268;28;20097;-84
2021/03/10 11:22:07;;;;;;;44.50;30.30;;;3.50;95.20;;;;;;5091790;28;20039;-83
2021/03/10 11:24:37;;;;;;;49.83;31.65;;;3.40;95.80;;;;;;5090978;27;20047;-83
2021/03/10 11:27:06;;;;;;;41.35;28.05;;;3.40;95.50;;;;;;5079016;28;20403;-83
2021/03/10 11:29:38;;;;;;;42.47;27.35;;;3.40;95.30;;;;;;5085712;28;20122;-83
2021/03/10 11:32:07;;;;;;;47.85;28.60;;;3.50;95.90;;;;;;5089082;28;20139;-84
2021/03/10 11:34:37;;;;;;;51.03;30.45;;;3.60;95.20;;;;;;5065205;28;20503;-83
2021/03/10 11:37:08;;;;;;;47.38;29.48;;;3.80;97.20;;;;;;5065173;28;20070;-84
2021/03/10 11:39:59;;;;;;;43.55;26.85;;;4.00;95.70;;;;;;5074944;27;20517;-83
2021/03/10 11:42:30;;;;;;;48.03;28.30;;;4.20;95.00;;;;;;5066584;28;20055;-84
2021/03/10 11:44:57;;;;;;;43.75;30.10;;;4.50;94.40;;;;;;5080484;28;20044;-84
2021/03/10 11:47:24;;;;;;;43.55;27.30;;;4.50;94.20;;;;;;5062791;28;20052;-84
2021/03/10 11:49:51;;;;;;;47.70;31.58;;;4.30;93.10;;;;;;5070210;28;20047;-84
2021/03/10 11:52:18;;;;;;;45.00;29.13;;;4.30;95.30;;;;;;5087932;28;20048;-83
2021/03/10 11:54:47;;;;;;;45.33;29.23;;;4.50;92.40;;;;;;5073227;28;20039;-84
2021/03/10 11:57:15;;;;;;;40.38;30.23;;;4.60;92.70;;;;;;5055253;28;20075;-83
2021/03/10 11:59:42;;;;;;;38.60;26.27;;;4.50;94.30;;;;;;5061875;28;20459;-86
2021/03/10 12:02:16;;;;;;;40.42;24.83;;;4.50;91.70;;;;;;5073034;28;20055;-86
2021/03/10 12:04:51;;;;;;;38.22;26.67;;;4.50;92.20;;;;;;5047968;28;20037;-83
2021/03/10 12:07:23;;;;;;;39.47;25.50;;;4.60;92.40;;;;;;5071581;28;20090;-83
2021/03/10 12:09:50;;;;;;;39.20;25.45;;;4.60;92.30;;;;;;5080979;28;20036;-83
2021/03/10 12:12:18;;;;;;;42.28;27.92;;;4.90;92.60;;;;;;5088152;27;20036;-83
2021/03/10 12:14:54;;;;;;;38.45;27.05;;;5.10;90.90;;;;;;5090068;28;20051;-83
2021/03/10 12:17:21;;;;;;;40.95;25.42;;;4.90;91.90;;;;;;5084444;27;20044;-83
2021/03/10 12:19:48;;;;;;;33.75;21.95;;;4.80;89.60;;;;;;5092661;28;20075;-84
2021/03/10 12:22:16;;;;;;;38.40;22.23;;;4.90;91.10;;;;;;5084161;28;20455;-83
2021/03/10 12:24:46;;;;;;;39.30;26.20;;;4.80;90.90;;;;;;5090110;27;20130;-79
2021/03/10 12:27:23;;;;;;;34.28;24.80;;;4.70;93.90;;;;;;5092335;28;20044;-84
2021/03/10 12:29:54;;;;;;;35.47;25.73;;;4.40;92.20;;;;;;5088510;28;20044;-84
2021/03/10 12:32:27;;;;;;;39.83;26.25;;;4.30;92.70;;;;;;5089704;28;20063;-81
2021/03/10 12:34:56;;;;;;;36.92;25.27;;;4.20;94.00;;;;;;5079776;28;20057;-81
2021/03/10 12:37:23;;;;;;;33.60;21.90;;;4.20;93.30;;;;;;5091338;28;20095;-82
2021/03/10 12:39:50;;;;;;;43.63;24.42;;;4.30;92.60;;;;;;5072022;28;20048;-82
2021/03/10 12:42:18;;;;;;;34.30;24.75;;;4.00;93.10;;;;;;5079722;28;20051;-81
2021/03/10 12:44:46;;;;;;;29.67;19.83;;;4.10;93.50;;;;;;5081304;28;20064;-80
2021/03/10 12:47:14;;;;;;;37.58;23.38;;;4.20;93.20;;;;;;5089404;28;20116;-75
2021/03/10 12:49:42;;;;;;;36.13;24.30;;;4.30;94.00;;;;;;5089469;28;20036;-75
2021/03/10 12:52:09;;;;;;;30.92;21.13;;;4.40;94.50;;;;;;5087782;28;20044;-74
2021/03/10 12:54:36;;;;;;;28.20;17.80;;;4.50;95.10;;;;;;5090778;28;20047;-75
2021/03/10 12:57:04;;;;;;;25.83;18.17;;;4.50;91.40;;;;;;5089613;28;20093;-73
2021/03/10 12:59:31;;;;;;;24.13;18.17;;;4.30;91.60;;;;;;5082423;28;20048;-73
2021/03/10 13:01:59;;;;;;;24.48;16.95;;;4.30;91.30;;;;;;5089077;27;20036;-74
2021/03/10 13:04:27;;;;;;;23.42;17.50;;;4.30;91.20;;;;;;5081938;27;20048;-74